createdAt,value
2023-04-10T00:00:58.090Z,101610.56
2023-04-10T00:04:01.231Z,101609.47
2023-04-10T00:07:03.986Z,101599.75
2023-04-10T00:10:06.727Z,101596.09
2023-04-10T00:13:09.138Z,101578.25
2023-04-10T00:16:11.958Z,101589.16
2023-04-10T00:19:14.504Z,101592.13
2023-04-10T00:22:17.007Z,101582.75
2023-04-10T00:25:19.611Z,101590.63
2023-04-10T00:28:22.741Z,101588.25
2023-04-10T00:31:25.156Z,101588.34
2023-04-10T00:34:27.490Z,101590.38
2023-04-10T00:37:30.016Z,101584.13
2023-04-10T00:40:32.787Z,101587.69
2023-04-10T00:43:35.193Z,101581.88
2023-04-10T00:46:38.884Z,101587.72
2023-04-10T00:49:42.222Z,101589.31
2023-04-10T00:52:44.957Z,101587.22
2023-04-10T00:55:47.483Z,101583.16
2023-04-10T00:58:49.804Z,101586.31
2023-04-10T01:01:52.354Z,101586.19
2023-04-10T01:04:55.212Z,101591.69
2023-04-10T01:08:13.833Z,101598.72
2023-04-10T01:11:25.219Z,101601.91
2023-04-10T01:14:35.313Z,101594.75
2023-04-10T01:17:51.663Z,101588.81
2023-04-10T01:20:54.552Z,101591.31
2023-04-10T01:24:18.417Z,101597.25
2023-04-10T01:27:35.900Z,101591.63
2023-04-10T01:30:38.656Z,101591.75
2023-04-10T01:34:17.000Z,101594.06
2023-04-10T01:37:28.857Z,101595.41
2023-04-10T01:40:32.501Z,101594.00
2023-04-10T01:43:36.179Z,101591.41
2023-04-10T01:46:38.976Z,101587.00
2023-04-10T01:49:44.733Z,101592.41
2023-04-10T01:52:48.225Z,101593.56
2023-04-10T01:55:57.124Z,101587.72
2023-04-10T01:59:00.153Z,101585.41
2023-04-10T02:02:02.792Z,101589.03
2023-04-10T02:05:05.907Z,101605.91
2023-04-10T02:08:25.944Z,101600.44
2023-04-10T02:11:40.365Z,101610.69
2023-04-10T02:14:46.054Z,101602.50
2023-04-10T02:17:48.710Z,101604.22
2023-04-10T02:20:52.923Z,101596.63
2023-04-10T02:23:57.998Z,101605.72
2023-04-10T02:27:01.694Z,101605.31
2023-04-10T02:30:05.201Z,101605.72
2023-04-10T02:33:09.914Z,101607.19
2023-04-10T02:36:12.990Z,101618.31
2023-04-10T02:39:15.629Z,101617.38
2023-04-10T02:42:24.220Z,101619.13
2023-04-10T02:45:28.458Z,101624.63
2023-04-10T02:48:31.535Z,101621.19
2023-04-10T02:51:37.516Z,101612.75
2023-04-10T02:54:40.718Z,101621.41
2023-04-10T02:57:43.313Z,101611.84
2023-04-10T03:00:50.888Z,101615.25
2023-04-10T03:04:04.175Z,101613.75
2023-04-10T03:07:12.321Z,101613.41
2023-04-10T03:10:15.197Z,101623.53
2023-04-10T03:13:17.740Z,101614.13
2023-04-10T03:16:20.203Z,101614.91
2023-04-10T03:19:23.221Z,101625.28
2023-04-10T03:22:25.631Z,101614.41
2023-04-10T03:25:28.540Z,101616.19
2023-04-10T03:28:33.043Z,101617.75
2023-04-10T03:31:35.521Z,101615.25
2023-04-10T03:34:37.887Z,101618.50
2023-04-10T03:37:40.357Z,101618.59
2023-04-10T03:40:42.796Z,101620.19
2023-04-10T03:43:46.475Z,101614.34
2023-04-10T03:46:49.075Z,101617.59
2023-04-10T03:49:52.449Z,101621.84
2023-04-10T03:52:55.068Z,101612.56
2023-04-10T03:55:58.813Z,101617.78
2023-04-10T03:59:01.189Z,101612.22
2023-04-10T04:02:03.617Z,101622.34
2023-04-10T04:05:07.691Z,101626.72
2023-04-10T04:08:24.001Z,101627.53
2023-04-10T04:11:46.470Z,101629.28
2023-04-10T04:15:03.981Z,101617.84
2023-04-10T04:18:42.032Z,101636.38
2023-04-10T04:21:55.831Z,101626.97
2023-04-10T04:25:15.998Z,101630.31
2023-04-10T04:28:24.569Z,101637.34
2023-04-10T04:31:56.294Z,101625.38
2023-04-10T04:35:37.276Z,101615.38
2023-04-10T04:38:59.514Z,101623.44
2023-04-10T04:42:07.812Z,101629.97
2023-04-10T04:45:23.326Z,101639.78
2023-04-10T04:48:45.410Z,101646.31
2023-04-10T04:52:06.601Z,101644.72
2023-04-10T04:55:21.983Z,101640.81
2023-04-10T04:58:53.884Z,101655.28
2023-04-10T05:02:15.019Z,101652.66
2023-04-10T05:05:41.747Z,101656.00
2023-04-10T05:08:53.758Z,101656.19
2023-04-10T05:12:06.254Z,101654.47
2023-04-10T05:15:27.274Z,101669.78
2023-04-10T05:18:50.128Z,101668.06
2023-04-10T05:22:16.910Z,101677.50
2023-04-10T05:25:29.109Z,101684.63
2023-04-10T05:28:53.170Z,101680.19
2023-04-10T05:32:20.978Z,101678.19
2023-04-10T05:35:36.828Z,101677.41
2023-04-10T05:38:59.570Z,101671.66
2023-04-10T05:42:10.725Z,101682.94
2023-04-10T05:45:30.309Z,101696.72
2023-04-10T05:48:51.949Z,101694.22
2023-04-10T05:52:21.480Z,101686.94
2023-04-10T05:55:42.605Z,101676.78
2023-04-10T05:59:11.428Z,101692.56
2023-04-10T06:02:37.052Z,101692.19
2023-04-10T06:05:42.621Z,101689.03
2023-04-10T06:08:44.914Z,101681.78
2023-04-10T06:11:47.335Z,101681.13
2023-04-10T06:14:54.227Z,101685.91
2023-04-10T06:17:58.134Z,101688.75
2023-04-10T06:21:02.235Z,101687.75
2023-04-10T06:24:04.777Z,101692.22
2023-04-10T06:27:07.285Z,101682.91
2023-04-10T06:30:11.362Z,101703.41
2023-04-10T06:33:13.731Z,101688.56
2023-04-10T06:36:19.425Z,101695.06
2023-04-10T06:39:33.101Z,101701.03
2023-04-10T06:42:36.253Z,101691.56
2023-04-10T06:45:50.055Z,101696.16
2023-04-10T06:48:53.072Z,101688.56
2023-04-10T06:51:55.985Z,101699.41
2023-04-10T06:54:58.447Z,101689.88
2023-04-10T06:58:00.946Z,101696.94
2023-04-10T07:01:06.329Z,101695.06
2023-04-10T07:04:08.944Z,101694.88
2023-04-10T07:07:13.477Z,101699.00
2023-04-10T07:10:15.816Z,101695.84
2023-04-10T07:13:18.249Z,101701.00
2023-04-10T07:16:20.982Z,101696.34
2023-04-10T07:19:23.368Z,101695.91
2023-04-10T07:22:26.581Z,101692.16
2023-04-10T07:25:28.933Z,101686.78
2023-04-10T07:28:33.488Z,101681.78
2023-04-10T07:31:36.109Z,101681.44
2023-04-10T07:34:38.641Z,101682.59
2023-04-10T07:37:43.830Z,101686.50
2023-04-10T07:40:46.213Z,101689.25
2023-04-10T07:43:48.786Z,101690.19
2023-04-10T07:46:52.612Z,101690.19
2023-04-10T07:49:55.089Z,101680.97
2023-04-10T07:52:57.604Z,101685.84
2023-04-10T07:56:00.130Z,101674.97
2023-04-10T07:59:03.491Z,101681.63
2023-04-10T08:02:06.087Z,101691.06
2023-04-10T08:05:08.951Z,101681.91
2023-04-10T08:08:11.541Z,101675.50
2023-04-10T08:11:26.388Z,101682.56
2023-04-10T08:14:28.874Z,101679.88
2023-04-10T08:17:31.697Z,101675.63
2023-04-10T08:20:37.142Z,101666.91
2023-04-10T08:23:39.578Z,101664.72
2023-04-10T08:26:41.994Z,101668.53
2023-04-10T08:29:44.671Z,101662.53
2023-04-10T08:32:47.080Z,101662.13
2023-04-10T08:35:49.536Z,101662.91
2023-04-10T08:38:51.911Z,101658.03
2023-04-10T08:41:55.490Z,101648.09
2023-04-10T08:44:58.008Z,101654.78
2023-04-10T08:48:03.717Z,101651.91
2023-04-10T08:51:12.811Z,101652.38
2023-04-10T08:54:26.244Z,101648.22
2023-04-10T08:57:29.360Z,101647.03
2023-04-10T09:00:34.817Z,101650.50
2023-04-10T09:03:38.467Z,101652.25
2023-04-10T09:06:41.224Z,101643.00
2023-04-10T09:09:44.327Z,101642.63
2023-04-10T09:12:48.279Z,101637.22
2023-04-10T09:15:58.698Z,101641.47
2023-04-10T09:19:05.052Z,101626.09
2023-04-10T09:22:08.362Z,101625.34
2023-04-10T09:25:30.664Z,101619.91
2023-04-10T09:28:35.282Z,101617.03
2023-04-10T09:31:38.996Z,101602.16
2023-04-10T09:34:58.804Z,101603.56
2023-04-10T09:38:01.279Z,101598.72
2023-04-10T09:41:10.009Z,101585.22
2023-04-10T09:44:12.433Z,101586.19
2023-04-10T09:47:14.747Z,101589.53
2023-04-10T09:50:17.595Z,101589.13
2023-04-10T09:53:22.019Z,101557.59
2023-04-10T09:56:27.969Z,101573.59
2023-04-10T09:59:30.629Z,101587.88
2023-04-10T10:02:37.482Z,101583.13
2023-04-10T10:05:49.250Z,101575.84
2023-04-10T10:08:51.792Z,101570.44
2023-04-10T10:11:55.782Z,101565.53
2023-04-10T10:15:02.639Z,101571.34
2023-04-10T10:18:09.019Z,101560.13
2023-04-10T10:21:11.585Z,101551.91
2023-04-10T10:24:14.680Z,101556.81
2023-04-10T10:27:18.674Z,101545.00
2023-04-10T10:33:28.501Z,101548.03
2023-04-10T10:36:32.332Z,101533.19
2023-04-10T10:39:43.363Z,101535.13
2023-04-10T10:42:58.683Z,101531.00
2023-04-10T10:46:07.315Z,101535.63
2023-04-10T10:49:09.777Z,101530.69
2023-04-10T10:52:12.538Z,101523.25
2023-04-10T10:58:59.038Z,101528.41
2023-04-10T11:02:17.837Z,101519.16
2023-04-10T11:05:55.443Z,101517.34
2023-04-10T11:08:57.915Z,101517.59
2023-04-10T11:12:00.655Z,101512.91
2023-04-10T11:15:07.032Z,101506.75
2023-04-10T11:18:09.527Z,101502.19
2023-04-10T11:21:17.995Z,101502.16
2023-04-10T11:24:20.893Z,101496.75
2023-04-10T11:27:42.170Z,101493.19
2023-04-10T11:30:45.584Z,101495.59
2023-04-10T11:34:02.246Z,101487.88
2023-04-10T11:37:04.569Z,101485.13
2023-04-10T11:40:07.471Z,101489.41
2023-04-10T11:43:15.869Z,101488.50
2023-04-10T11:46:18.510Z,101480.13
2023-04-10T11:49:38.948Z,101483.69
2023-04-10T11:52:41.242Z,101481.22
2023-04-10T11:55:43.687Z,101472.06
2023-04-10T11:58:46.060Z,101469.91
2023-04-10T12:01:48.600Z,101462.84
2023-04-10T12:04:58.785Z,101458.88
2023-04-10T12:08:02.258Z,101466.19
2023-04-10T12:11:04.708Z,101455.69
2023-04-10T12:14:07.012Z,101434.00
2023-04-10T12:17:11.878Z,101437.31
2023-04-10T12:20:16.769Z,101443.16
2023-04-10T12:23:19.206Z,101448.91
2023-04-10T12:26:21.671Z,101437.25
2023-04-10T12:29:30.018Z,101429.72
2023-04-10T12:32:32.536Z,101427.59
2023-04-10T12:35:42.969Z,101424.66
2023-04-10T12:38:46.065Z,101422.28
2023-04-10T12:41:48.483Z,101407.69
2023-04-10T12:45:01.252Z,101411.16
2023-04-10T12:48:03.745Z,101407.78
2023-04-10T12:51:06.433Z,101393.84
2023-04-10T12:54:09.025Z,101390.41
2023-04-10T12:57:27.361Z,101395.97
2023-04-10T13:00:29.677Z,101386.53
2023-04-10T13:03:34.146Z,101388.66
2023-04-10T13:06:44.221Z,101384.94
2023-04-10T13:09:46.731Z,101358.84
2023-04-10T13:12:49.040Z,101373.59
2023-04-10T13:15:51.445Z,101373.84
2023-04-10T13:18:54.018Z,101371.91
2023-04-10T13:21:56.641Z,101363.84
2023-04-10T13:24:59.572Z,101340.56
2023-04-10T13:28:02.350Z,101355.56
2023-04-10T13:31:04.758Z,101357.19
2023-04-10T13:34:07.524Z,101341.13
2023-04-10T13:37:13.345Z,101337.84
2023-04-10T13:40:15.823Z,101344.50
2023-04-10T13:43:19.474Z,101341.03
2023-04-10T13:46:22.059Z,101331.72
2023-04-10T13:49:25.129Z,101327.22
2023-04-10T13:52:27.480Z,101325.22
2023-04-10T13:55:29.860Z,101321.69
2023-04-10T13:58:34.348Z,101310.78
2023-04-10T14:01:37.224Z,101326.03
2023-04-10T14:04:39.795Z,101315.75
2023-04-10T14:07:42.146Z,101309.25
2023-04-10T14:10:44.607Z,101299.56
2023-04-10T14:13:47.062Z,101303.88
2023-04-10T14:16:49.495Z,101302.00
2023-04-10T14:19:54.802Z,101288.69
2023-04-10T14:22:57.288Z,101289.97
2023-04-10T14:25:59.807Z,101293.47
2023-04-10T14:29:02.634Z,101285.00
2023-04-10T14:32:05.417Z,101280.03
2023-04-10T14:35:08.530Z,101281.16
2023-04-10T14:38:11.122Z,101275.78
2023-04-10T14:41:13.464Z,101273.88
2023-04-10T14:44:15.897Z,101269.50
2023-04-10T14:47:18.347Z,101261.69
2023-04-10T14:50:21.001Z,101259.44
2023-04-10T14:53:23.371Z,101267.66
2023-04-10T14:56:25.823Z,101254.31
2023-04-10T14:59:28.410Z,101259.78
2023-04-10T15:02:31.439Z,101246.38
2023-04-10T15:05:34.205Z,101245.31
2023-04-10T15:08:36.813Z,101250.19
2023-04-10T15:11:39.135Z,101246.19
2023-04-10T15:14:41.527Z,101240.97
2023-04-10T15:17:44.375Z,101233.66
2023-04-10T15:20:46.891Z,101242.28
2023-04-10T15:23:49.357Z,101237.78
2023-04-10T15:26:53.590Z,101237.69
2023-04-10T15:29:56.016Z,101237.16
2023-04-10T15:32:58.527Z,101229.22
2023-04-10T15:36:00.991Z,101229.81
2023-04-10T15:39:04.162Z,101221.16
2023-04-10T15:42:08.403Z,101217.44
2023-04-10T15:45:10.848Z,101216.81
2023-04-10T15:48:13.679Z,101209.16
2023-04-10T15:51:16.299Z,101205.06
2023-04-10T15:54:18.574Z,101191.78
2023-04-10T15:57:21.007Z,101187.50
2023-04-10T16:00:23.730Z,101187.94
2023-04-10T16:03:29.500Z,101187.78
2023-04-10T16:06:33.593Z,101176.09
2023-04-10T16:09:36.184Z,101177.88
2023-04-10T16:12:38.949Z,101171.13
2023-04-10T16:15:41.437Z,101167.91
2023-04-10T16:18:45.071Z,101163.72
2023-04-10T16:21:47.573Z,101153.63
2023-04-10T16:24:50.538Z,101153.19
2023-04-10T16:27:52.878Z,101147.50
2023-04-10T16:30:56.977Z,101146.34
2023-04-10T16:33:59.398Z,101144.81
2023-04-10T16:37:01.922Z,101140.97
2023-04-10T16:40:05.703Z,101129.31
2023-04-10T16:43:08.350Z,101108.44
2023-04-10T16:46:10.861Z,101114.38
2023-04-10T16:49:13.549Z,101120.47
2023-04-10T16:52:15.951Z,101115.75
2023-04-10T16:55:18.710Z,101119.03
2023-04-10T16:58:20.982Z,101119.56
2023-04-10T17:01:27.513Z,101110.75
2023-04-10T17:04:29.966Z,101122.09
2023-04-10T17:07:32.535Z,101125.50
2023-04-10T17:10:34.964Z,101096.94
2023-04-10T17:13:37.307Z,101107.94
2023-04-10T17:16:40.774Z,101100.84
2023-04-10T17:19:43.287Z,101110.53
2023-04-10T17:22:47.028Z,101100.19
2023-04-10T17:25:49.450Z,101106.91
2023-04-10T17:28:52.561Z,101108.66
2023-04-10T17:31:55.375Z,101100.78
2023-04-10T17:34:57.632Z,101107.13
2023-04-10T17:37:59.994Z,101113.44
2023-04-10T17:41:02.423Z,101115.63
2023-04-10T17:44:05.675Z,101117.78
2023-04-10T17:47:08.063Z,101108.47
2023-04-10T17:50:10.778Z,101113.13
2023-04-10T17:53:13.147Z,101105.44
2023-04-10T17:56:19.831Z,101113.31
2023-04-10T17:59:22.208Z,101112.97
2023-04-10T18:02:24.731Z,101102.00
2023-04-10T18:05:38.414Z,101103.06
2023-04-10T18:08:40.870Z,101101.34
2023-04-10T18:11:44.666Z,101100.16
2023-04-10T18:14:48.256Z,101099.84
2023-04-10T18:17:50.700Z,101109.81
2023-04-10T18:20:53.096Z,101103.25
2023-04-10T18:23:55.515Z,101104.78
2023-04-10T18:26:57.906Z,101100.34
2023-04-10T18:30:00.250Z,101115.09
2023-04-10T18:33:05.075Z,101111.69
2023-04-10T18:36:08.606Z,101082.00
2023-04-10T18:39:11.147Z,101107.78
2023-04-10T18:42:13.739Z,101098.38
2023-04-10T18:45:16.225Z,101090.63
2023-04-10T18:48:18.648Z,101098.41
2023-04-10T18:51:21.436Z,101094.81
2023-04-10T18:54:23.808Z,101101.81
2023-04-10T18:57:26.323Z,101082.56
2023-04-10T19:00:28.655Z,101096.97
2023-04-10T19:03:31.241Z,101089.00
2023-04-10T19:06:35.223Z,101087.34
2023-04-10T19:09:37.624Z,101092.75
2023-04-10T19:12:40.440Z,101071.22
2023-04-10T19:15:44.447Z,101089.75
2023-04-10T19:18:50.228Z,101084.75
2023-04-10T19:21:52.530Z,101083.94
2023-04-10T19:24:54.839Z,101071.75
2023-04-10T19:27:57.210Z,101067.34
2023-04-10T19:30:59.545Z,101074.47
2023-04-10T19:34:04.586Z,101070.88
2023-04-10T19:37:07.465Z,101061.31
2023-04-10T19:40:10.306Z,101054.88
2023-04-10T19:43:12.757Z,101051.75
2023-04-10T19:46:21.760Z,101045.91
2023-04-10T19:49:24.102Z,101051.22
2023-04-10T19:52:26.726Z,101033.22
2023-04-10T19:55:29.080Z,101036.69
2023-04-10T20:01:38.299Z,101042.94
2023-04-10T20:04:40.909Z,101005.00
2023-04-10T20:07:43.381Z,101022.94
2023-04-10T20:10:45.981Z,101030.19
2023-04-10T20:13:48.387Z,101025.84
2023-04-10T20:16:50.826Z,101023.31
2023-04-10T20:19:53.208Z,101015.34
2023-04-10T20:22:56.180Z,101017.00
2023-04-10T20:25:58.585Z,101011.03
2023-04-10T20:29:01.184Z,101011.44
2023-04-10T20:32:04.316Z,100997.03
2023-04-10T20:35:07.303Z,101007.72
2023-04-10T20:38:09.651Z,101001.63
2023-04-10T20:41:12.149Z,100997.88
2023-04-10T20:44:14.999Z,100996.69
2023-04-10T20:47:17.419Z,100991.25
2023-04-10T20:50:19.862Z,100985.25
2023-04-10T20:53:22.297Z,100981.16
2023-04-10T20:56:32.902Z,100983.16
2023-04-10T20:59:42.801Z,100985.81
2023-04-10T21:02:45.580Z,100971.72
2023-04-10T21:05:48.110Z,100972.47
2023-04-10T21:08:50.680Z,100953.66
2023-04-10T21:11:53.043Z,100975.94
2023-04-10T21:14:55.636Z,100976.84
2023-04-10T21:17:58.258Z,100970.09
2023-04-10T21:21:00.824Z,100974.44
2023-04-10T21:24:03.355Z,100970.50
2023-04-10T21:27:07.553Z,100969.06
2023-04-10T21:30:10.018Z,100967.69
2023-04-10T21:33:12.360Z,100953.50
2023-04-10T21:36:14.821Z,100962.13
2023-04-10T21:39:17.313Z,100958.38
2023-04-10T21:42:19.879Z,100946.38
2023-04-10T21:45:22.278Z,100949.84
2023-04-10T21:48:24.647Z,100945.25
2023-04-10T21:51:28.438Z,100952.50
2023-04-10T21:54:31.076Z,100925.25
2023-04-10T21:57:33.771Z,100936.63
2023-04-10T22:00:36.136Z,100922.44
2023-04-10T22:03:38.768Z,100922.28
2023-04-10T22:06:41.244Z,100921.06
2023-04-10T22:09:43.651Z,100926.63
2023-04-10T22:12:48.578Z,100917.13
2023-04-10T22:15:51.321Z,100902.66
2023-04-10T22:18:54.039Z,100914.72
2023-04-10T22:21:56.989Z,100911.31
2023-04-10T22:24:59.394Z,100895.28
2023-04-10T22:28:01.708Z,100900.63
2023-04-10T22:31:04.212Z,100892.06
2023-04-10T22:34:06.551Z,100865.78
2023-04-10T22:37:08.885Z,100888.31
2023-04-10T22:40:11.311Z,100856.16
2023-04-10T22:43:13.770Z,100881.66
2023-04-10T22:46:16.292Z,100856.28
2023-04-10T22:49:18.639Z,100862.59
2023-04-10T22:52:21.071Z,100861.94
2023-04-10T22:55:23.412Z,100865.59
2023-04-10T22:58:25.814Z,100854.84
2023-04-10T23:01:28.418Z,100837.16
2023-04-10T23:04:31.090Z,100848.56
2023-04-10T23:07:33.492Z,100843.44
2023-04-10T23:10:35.886Z,100846.84
2023-04-10T23:13:38.148Z,100831.63
2023-04-10T23:16:40.551Z,100827.84
2023-04-10T23:19:42.915Z,100826.97
2023-04-10T23:22:45.393Z,100822.06
2023-04-10T23:25:47.764Z,100820.28
2023-04-10T23:28:50.150Z,100814.06
2023-04-10T23:31:52.447Z,100801.13
2023-04-10T23:34:54.723Z,100802.19
2023-04-10T23:37:57.877Z,100804.81
2023-04-10T23:41:00.282Z,100780.78
2023-04-10T23:44:02.735Z,100797.84
2023-04-10T23:47:06.349Z,100788.19
2023-04-10T23:50:09.186Z,100782.25
2023-04-10T23:53:13.357Z,100774.63
2023-04-10T23:56:16.919Z,100765.91
2023-04-10T23:59:19.373Z,100758.88
